Habib Express — 5IM379 — position and weather

sailwx.info

Track history (hours):
 
Tides and Currents Weather Stations Pressure Air Temp Water Temp Dewpoint Dewpoint Depression Visibility Wind Speed Wind Dir Waves Ship Positions

Habib Express

Last reported at 2018-Feb-18 07:37 UTC. Time now 2018-Feb-20 05:40 UTC.
Position N 25°23' W 079°53'.

Length 90 m; draft 3.7 m.

Type: Cargo ship. MMSI: 677027900.

Date/timePositionNaut miles runAvg speedWind from/ knotsBaromVisibWave heightAir tempDewpointWater temp
2018-Feb-18 07:37N 25°23' W 079°53'1 9.3
2018-Feb-18 07:30N 25°24' W 079°53'5 9.3
2018-Feb-18 07:00N 25°28' W 079°55'5 9.8
2018-Feb-18 06:30N 25°33' W 079°57'510.4
2018-Feb-18 06:00N 25°37' W 080°00'611.8
2018-Feb-18 05:31N 25°42' W 080°03'4 8.6
2018-Feb-18 05:01N 25°45' W 080°07'4 7.7
2018-Feb-18 04:31N 25°46' W 080°11'1 2.3
2018-Feb-18 04:00N 25°46' W 080°12'1 2.7
2018-Feb-18 03:30N 25°47' W 080°13'1 2.5
2018-Feb-18 03:00N 25°48' W 080°15'0 0.4
2018-Feb-18 02:29N 25°48' W 080°15'0 0.0
2018-Feb-18 01:59N 25°48' W 080°15'0 0.0
2018-Feb-18 01:29N 25°48' W 080°15'0 0.0
2018-Feb-18 00:59N 25°48' W 080°15'0 0.0
2018-Feb-18 00:29N 25°48' W 080°15'0 0.0
2018-Feb-17 23:59N 25°48' W 080°15'0 0.0
2018-Feb-17 23:29N 25°48' W 080°15'0 0.0
2018-Feb-17 22:59N 25°48' W 080°15'0 0.0
2018-Feb-17 22:29N 25°48' W 080°15'0 0.0
2018-Feb-17 21:59N 25°48' W 080°15'0 0.0
2018-Feb-17 21:29N 25°48' W 080°15'0 0.0
2018-Feb-17 20:59N 25°48' W 080°15'0 0.0
2018-Feb-17 20:29N 25°48' W 080°15'0 0.0
2018-Feb-17 19:59N 25°48' W 080°15'0 0.0
2018-Feb-17 19:29N 25°48' W 080°15'0 0.0
2018-Feb-17 18:59N 25°48' W 080°15'0 0.0
2018-Feb-17 18:29N 25°48' W 080°15'0 0.1
2018-Feb-17 17:59N 25°48' W 080°15'0 0.0
2018-Feb-17 17:29N 25°48' W 080°15'0 0.0
2018-Feb-17 16:59N 25°48' W 080°15'0 0.0
2018-Feb-17 16:29N 25°48' W 080°15'0 0.0
2018-Feb-17 15:59N 25°48' W 080°15'0 0.0
2018-Feb-17 15:29N 25°48' W 080°15'0 0.0
2018-Feb-17 14:59N 25°48' W 080°15'0 0.0
2018-Feb-17 14:29N 25°48' W 080°15'0 0.0
2018-Feb-17 13:59N 25°48' W 080°15'0 0.0
2018-Feb-17 13:29N 25°48' W 080°15'0 0.0
2018-Feb-17 12:59N 25°48' W 080°15'0 0.0
2018-Feb-17 12:29N 25°48' W 080°15'0 0.6
2018-Feb-17 12:01N 25°48' W 080°14'2 3.3
2018-Feb-17 11:30N 25°47' W 080°13'2 3.1
2018-Feb-17 11:00N 25°46' W 080°11'3 5.8
2018-Feb-17 10:31N 25°46' W 080°08'3 4.8
2018-Feb-17 09:59N 25°47' W 080°05'0 0.3
2018-Feb-17 09:29N 25°47' W 080°06'0 0.0
2018-Feb-17 08:59N 25°47' W 080°06'0 0.0
2018-Feb-17 08:29N 25°47' W 080°06'0 0.0
2018-Feb-17 07:59N 25°47' W 080°06'0 0.0
2018-Feb-17 07:29N 25°47' W 080°06'0 0.0
2018-Feb-17 06:59N 25°47' W 080°06'0 0.0
2018-Feb-17 06:29N 25°47' W 080°06'0 0.0
2018-Feb-17 05:59N 25°47' W 080°06'0 0.0
2018-Feb-17 05:29N 25°47' W 080°06'0 0.1
2018-Feb-17 04:59N 25°47' W 080°06'0 0.0
2018-Feb-17 04:29N 25°47' W 080°06'0 0.0
2018-Feb-17 03:59N 25°47' W 080°06'0 0.0
2018-Feb-17 03:29N 25°47' W 080°06'0 0.0
2018-Feb-17 02:59N 25°47' W 080°06'0 0.0
2018-Feb-17 02:29N 25°47' W 080°06'0 0.0
2018-Feb-17 01:59N 25°47' W 080°06'0 0.0
2018-Feb-17 01:29N 25°47' W 080°06'0 0.0
2018-Feb-17 00:59N 25°47' W 080°06'0 0.0
2018-Feb-17 00:29N 25°47' W 080°06'0 0.0
2018-Feb-16 23:56N 25°47' W 080°06'0 0.0
2018-Feb-16 23:29N 25°47' W 080°06'0 0.1
2018-Feb-16 22:59N 25°47' W 080°06'0 0.0
2018-Feb-16 22:29N 25°47' W 080°06'0 0.0
2018-Feb-16 21:59N 25°47' W 080°06'0 0.0
2018-Feb-16 21:29N 25°47' W 080°06'0 0.0
2018-Feb-16 20:59N 25°47' W 080°06'0 0.0
2018-Feb-16 20:29N 25°47' W 080°06'0 0.0
2018-Feb-16 19:56N 25°47' W 080°06'0 0.1
2018-Feb-16 19:23N 25°47' W 080°06'0 0.0
2018-Feb-16 18:59N 25°47' W 080°06'0 0.0
2018-Feb-16 18:26N 25°47' W 080°06'0 0.1
2018-Feb-16 17:59N 25°47' W 080°06'0 0.0
2018-Feb-16 17:29N 25°47' W 080°06'0 0.0
2018-Feb-16 16:56N 25°47' W 080°06'0 0.0
2018-Feb-16 16:29N 25°47' W 080°06'0 0.0
2018-Feb-16 15:59N 25°47' W 080°06'0 0.0
2018-Feb-16 15:29N 25°47' W 080°06'0 0.0
2018-Feb-16 14:56N 25°47' W 080°06'0 0.1
2018-Feb-16 14:30N 25°47' W 080°06'2 3.9
2018-Feb-16 14:00N 25°45' W 080°04'4 8.8
2018-Feb-16 13:30N 25°42' W 080°01'5 9.8
2018-Feb-16 13:00N 25°37' W 079°59'5 9.5
2018-Feb-16 12:30N 25°33' W 079°57'5 9.6
2018-Feb-16 12:00N 25°28' W 079°56'5 9.6
2018-Feb-16 11:29N 25°24' W 079°54'  
2018-Feb-09 15:30N 25°32' W 079°51'9 9.0
2018-Feb-09 14:31N 25°39' W 079°57'9 9.3
2018-Feb-09 13:31N 25°46' W 080°04'6 6.5
2018-Feb-09 12:30N 25°46' W 080°11'3 2.2
2018-Feb-09 11:01N 25°47' W 080°14'1 0.0
2018-Feb-08 18:30N 25°48' W 080°15'0 0.0
2018-Feb-08 18:00N 25°48' W 080°15'0 0.0
2018-Feb-08 17:30N 25°48' W 080°15'1 1.6
2018-Feb-08 17:00N 25°47' W 080°14'2 3.2
2018-Feb-08 16:30N 25°47' W 080°12'1 2.6
2018-Feb-08 16:00N 25°46' W 080°11'4 7.7
2018-Feb-08 15:30N 25°45' W 080°07'8 5.4
2018-Feb-08 14:00N 25°53' W 080°04'3 6.1
2018-Feb-08 13:30N 25°56' W 080°03'11 7.0
2018-Feb-08 12:00N 25°45' W 080°02'4 8.8
2018-Feb-08 11:30N 25°41' W 080°01'4 8.6
2018-Feb-08 11:00N 25°37' W 080°00'  
Track history (hours):
 
Tides and Currents Weather Stations Pressure Air Temp Water Temp Dewpoint Dewpoint Depression Visibility Wind Speed Wind Dir Waves Ship Positions

Habib Express

Last reported at 2018-Feb-18 07:37 UTC. Time now 2018-Feb-20 05:40 UTC.
Position N 25°23' W 079°53'.

Length 90 m; draft 3.7 m.

Type: Cargo ship. MMSI: 677027900.

Date/timePositionNaut miles runAvg speedWind from/ knotsBaromVisibWave heightAir tempDewpointWater temp
2018-Feb-18 07:37N 25°23' W 079°53'1 9.3
2018-Feb-18 07:30N 25°24' W 079°53'5 9.3
2018-Feb-18 07:00N 25°28' W 079°55'5 9.8
2018-Feb-18 06:30N 25°33' W 079°57'510.4
2018-Feb-18 06:00N 25°37' W 080°00'611.8
2018-Feb-18 05:31N 25°42' W 080°03'4 8.6
2018-Feb-18 05:01N 25°45' W 080°07'4 7.7
2018-Feb-18 04:31N 25°46' W 080°11'1 2.3
2018-Feb-18 04:00N 25°46' W 080°12'1 2.7
2018-Feb-18 03:30N 25°47' W 080°13'1 2.5
2018-Feb-18 03:00N 25°48' W 080°15'0 0.4
2018-Feb-18 02:29N 25°48' W 080°15'0 0.0
2018-Feb-18 01:59N 25°48' W 080°15'0 0.0
2018-Feb-18 01:29N 25°48' W 080°15'0 0.0
2018-Feb-18 00:59N 25°48' W 080°15'0 0.0
2018-Feb-18 00:29N 25°48' W 080°15'0 0.0
2018-Feb-17 23:59N 25°48' W 080°15'0 0.0
2018-Feb-17 23:29N 25°48' W 080°15'0 0.0
2018-Feb-17 22:59N 25°48' W 080°15'0 0.0
2018-Feb-17 22:29N 25°48' W 080°15'0 0.0
2018-Feb-17 21:59N 25°48' W 080°15'0 0.0
2018-Feb-17 21:29N 25°48' W 080°15'0 0.0
2018-Feb-17 20:59N 25°48' W 080°15'0 0.0
2018-Feb-17 20:29N 25°48' W 080°15'0 0.0
2018-Feb-17 19:59N 25°48' W 080°15'0 0.0
2018-Feb-17 19:29N 25°48' W 080°15'0 0.0
2018-Feb-17 18:59N 25°48' W 080°15'0 0.0
2018-Feb-17 18:29N 25°48' W 080°15'0 0.1
2018-Feb-17 17:59N 25°48' W 080°15'0 0.0
2018-Feb-17 17:29N 25°48' W 080°15'0 0.0
2018-Feb-17 16:59N 25°48' W 080°15'0 0.0
2018-Feb-17 16:29N 25°48' W 080°15'0 0.0
2018-Feb-17 15:59N 25°48' W 080°15'0 0.0
2018-Feb-17 15:29N 25°48' W 080°15'0 0.0
2018-Feb-17 14:59N 25°48' W 080°15'0 0.0
2018-Feb-17 14:29N 25°48' W 080°15'0 0.0
2018-Feb-17 13:59N 25°48' W 080°15'0 0.0
2018-Feb-17 13:29N 25°48' W 080°15'0 0.0
2018-Feb-17 12:59N 25°48' W 080°15'0 0.0
2018-Feb-17 12:29N 25°48' W 080°15'0 0.6
2018-Feb-17 12:01N 25°48' W 080°14'2 3.3
2018-Feb-17 11:30N 25°47' W 080°13'2 3.1
2018-Feb-17 11:00N 25°46' W 080°11'3 5.8
2018-Feb-17 10:31N 25°46' W 080°08'3 4.8
2018-Feb-17 09:59N 25°47' W 080°05'0 0.3
2018-Feb-17 09:29N 25°47' W 080°06'0 0.0
2018-Feb-17 08:59N 25°47' W 080°06'0 0.0
2018-Feb-17 08:29N 25°47' W 080°06'0 0.0
2018-Feb-17 07:59N 25°47' W 080°06'0 0.0
2018-Feb-17 07:29N 25°47' W 080°06'0 0.0
2018-Feb-17 06:59N 25°47' W 080°06'0 0.0
2018-Feb-17 06:29N 25°47' W 080°06'0 0.0
2018-Feb-17 05:59N 25°47' W 080°06'0 0.0
2018-Feb-17 05:29N 25°47' W 080°06'0 0.1
2018-Feb-17 04:59N 25°47' W 080°06'0 0.0
2018-Feb-17 04:29N 25°47' W 080°06'0 0.0
2018-Feb-17 03:59N 25°47' W 080°06'0 0.0
2018-Feb-17 03:29N 25°47' W 080°06'0 0.0
2018-Feb-17 02:59N 25°47' W 080°06'0 0.0
2018-Feb-17 02:29N 25°47' W 080°06'0 0.0
2018-Feb-17 01:59N 25°47' W 080°06'0 0.0
2018-Feb-17 01:29N 25°47' W 080°06'0 0.0
2018-Feb-17 00:59N 25°47' W 080°06'0 0.0
2018-Feb-17 00:29N 25°47' W 080°06'0 0.0
2018-Feb-16 23:56N 25°47' W 080°06'0 0.0
2018-Feb-16 23:29N 25°47' W 080°06'0 0.1
2018-Feb-16 22:59N 25°47' W 080°06'0 0.0
2018-Feb-16 22:29N 25°47' W 080°06'0 0.0
2018-Feb-16 21:59N 25°47' W 080°06'0 0.0
2018-Feb-16 21:29N 25°47' W 080°06'0 0.0
2018-Feb-16 20:59N 25°47' W 080°06'0 0.0
2018-Feb-16 20:29N 25°47' W 080°06'0 0.0
2018-Feb-16 19:56N 25°47' W 080°06'0 0.1
2018-Feb-16 19:23N 25°47' W 080°06'0 0.0
2018-Feb-16 18:59N 25°47' W 080°06'0 0.0
2018-Feb-16 18:26N 25°47' W 080°06'0 0.1
2018-Feb-16 17:59N 25°47' W 080°06'0 0.0
2018-Feb-16 17:29N 25°47' W 080°06'0 0.0
2018-Feb-16 16:56N 25°47' W 080°06'0 0.0
2018-Feb-16 16:29N 25°47' W 080°06'0 0.0
2018-Feb-16 15:59N 25°47' W 080°06'0 0.0
2018-Feb-16 15:29N 25°47' W 080°06'0 0.0
2018-Feb-16 14:56N 25°47' W 080°06'0 0.1
2018-Feb-16 14:30N 25°47' W 080°06'2 3.9
2018-Feb-16 14:00N 25°45' W 080°04'4 8.8
2018-Feb-16 13:30N 25°42' W 080°01'5 9.8
2018-Feb-16 13:00N 25°37' W 079°59'5 9.5
2018-Feb-16 12:30N 25°33' W 079°57'5 9.6
2018-Feb-16 12:00N 25°28' W 079°56'5 9.6
2018-Feb-16 11:29N 25°24' W 079°54'  
2018-Feb-09 15:30N 25°32' W 079°51'9 9.0
2018-Feb-09 14:31N 25°39' W 079°57'9 9.3
2018-Feb-09 13:31N 25°46' W 080°04'6 6.5
2018-Feb-09 12:30N 25°46' W 080°11'3 2.2
2018-Feb-09 11:01N 25°47' W 080°14'1 0.0
2018-Feb-08 18:30N 25°48' W 080°15'0 0.0
2018-Feb-08 18:00N 25°48' W 080°15'0 0.0
2018-Feb-08 17:30N 25°48' W 080°15'1 1.6
2018-Feb-08 17:00N 25°47' W 080°14'2 3.2
2018-Feb-08 16:30N 25°47' W 080°12'1 2.6
2018-Feb-08 16:00N 25°46' W 080°11'4 7.7
2018-Feb-08 15:30N 25°45' W 080°07'8 5.4
2018-Feb-08 14:00N 25°53' W 080°04'3 6.1
2018-Feb-08 13:30N 25°56' W 080°03'11 7.0
2018-Feb-08 12:00N 25°45' W 080°02'4 8.8
2018-Feb-08 11:30N 25°41' W 080°01'4 8.6
2018-Feb-08 11:00N 25°37' W 080°00'  

Dump ship's entire track history